sensor_id;sensor_type;location;lat;lon;timestamp;temperature;humidity
62589;DHT22;58504;48.770;9.148;2023-03-14T00:00:07;20.60;51.50
62589;DHT22;58504;48.770;9.148;2023-03-14T00:02:36;20.60;51.50
62589;DHT22;58504;48.770;9.148;2023-03-14T00:05:03;20.60;51.60
62589;DHT22;58504;48.770;9.148;2023-03-14T00:07:32;20.50;51.50
62589;DHT22;58504;48.770;9.148;2023-03-14T00:10:01;20.50;51.50
62589;DHT22;58504;48.770;9.148;2023-03-14T00:12:31;20.50;51.50
62589;DHT22;58504;48.770;9.148;2023-03-14T00:14:58;20.50;51.50
62589;DHT22;58504;48.770;9.148;2023-03-14T00:17:26;20.40;51.50
62589;DHT22;58504;48.770;9.148;2023-03-14T00:19:52;20.40;51.50
62589;DHT22;58504;48.770;9.148;2023-03-14T00:22:19;20.40;51.50
62589;DHT22;58504;48.770;9.148;2023-03-14T00:24:46;20.40;51.60
62589;DHT22;58504;48.770;9.148;2023-03-14T00:27:13;20.30;51.60
62589;DHT22;58504;48.770;9.148;2023-03-14T00:29:42;20.30;51.70
62589;DHT22;58504;48.770;9.148;2023-03-14T00:32:09;20.30;51.70
62589;DHT22;58504;48.770;9.148;2023-03-14T00:34:36;20.30;51.70
62589;DHT22;58504;48.770;9.148;2023-03-14T00:37:03;20.30;51.70
62589;DHT22;58504;48.770;9.148;2023-03-14T00:39:30;20.20;51.70
62589;DHT22;58504;48.770;9.148;2023-03-14T00:41:57;20.20;51.70
62589;DHT22;58504;48.770;9.148;2023-03-14T00:44:24;20.20;51.70
62589;DHT22;58504;48.770;9.148;2023-03-14T00:46:52;20.20;51.80
62589;DHT22;58504;48.770;9.148;2023-03-14T00:49:19;20.20;51.80
62589;DHT22;58504;48.770;9.148;2023-03-14T00:51:45;20.20;51.90
62589;DHT22;58504;48.770;9.148;2023-03-14T00:54:12;20.20;51.90
62589;DHT22;58504;48.770;9.148;2023-03-14T00:56:39;20.10;51.80
62589;DHT22;58504;48.770;9.148;2023-03-14T00:59:06;20.10;51.90
62589;DHT22;58504;48.770;9.148;2023-03-14T01:01:32;20.10;51.90
62589;DHT22;58504;48.770;9.148;2023-03-14T01:04:00;20.10;52.00
62589;DHT22;58504;48.770;9.148;2023-03-14T01:06:28;20.10;52.00
62589;DHT22;58504;48.770;9.148;2023-03-14T01:08:56;20.10;52.10
62589;DHT22;58504;48.770;9.148;2023-03-14T01:11:25;20.10;52.20
62589;DHT22;58504;48.770;9.148;2023-03-14T01:13:52;20.00;52.10
62589;DHT22;58504;48.770;9.148;2023-03-14T01:16:21;20.00;52.10
62589;DHT22;58504;48.770;9.148;2023-03-14T01:18:48;20.00;52.10
62589;DHT22;58504;48.770;9.148;2023-03-14T01:21:18;20.00;52.20
62589;DHT22;58504;48.770;9.148;2023-03-14T01:23:46;20.00;52.80
62589;DHT22;58504;48.770;9.148;2023-03-14T01:26:16;20.00;52.30
62589;DHT22;58504;48.770;9.148;2023-03-14T01:28:44;20.00;52.30
62589;DHT22;58504;48.770;9.148;2023-03-14T01:31:12;19.90;52.30
62589;DHT22;58504;48.770;9.148;2023-03-14T01:33:39;19.90;52.30
62589;DHT22;58504;48.770;9.148;2023-03-14T01:36:07;19.90;52.30
62589;DHT22;58504;48.770;9.148;2023-03-14T01:38:37;19.90;52.30
62589;DHT22;58504;48.770;9.148;2023-03-14T01:41:06;19.90;52.40
62589;DHT22;58504;48.770;9.148;2023-03-14T01:43:33;19.90;52.40
62589;DHT22;58504;48.770;9.148;2023-03-14T01:46:25;19.90;52.40
62589;DHT22;58504;48.770;9.148;2023-03-14T01:48:57;19.90;52.40
62589;DHT22;58504;48.770;9.148;2023-03-14T01:51:28;19.90;52.40
62589;DHT22;58504;48.770;9.148;2023-03-14T01:54:02;19.90;52.50
62589;DHT22;58504;48.770;9.148;2023-03-14T01:56:31;19.90;52.50
62589;DHT22;58504;48.770;9.148;2023-03-14T01:58:59;19.90;52.50
62589;DHT22;58504;48.770;9.148;2023-03-14T02:01:27;19.90;52.60
62589;DHT22;58504;48.770;9.148;2023-03-14T02:03:56;19.90;52.60
62589;DHT22;58504;48.770;9.148;2023-03-14T02:06:28;19.90;52.60
62589;DHT22;58504;48.770;9.148;2023-03-14T02:08:55;19.80;52.50
62589;DHT22;58504;48.770;9.148;2023-03-14T02:11:27;19.80;52.50
62589;DHT22;58504;48.770;9.148;2023-03-14T02:13:55;19.80;52.50
62589;DHT22;58504;48.770;9.148;2023-03-14T02:16:23;19.80;52.50
62589;DHT22;58504;48.770;9.148;2023-03-14T02:18:50;19.80;52.60
62589;DHT22;58504;48.770;9.148;2023-03-14T02:21:20;19.80;52.60
62589;DHT22;58504;48.770;9.148;2023-03-14T02:23:55;19.80;52.60
62589;DHT22;58504;48.770;9.148;2023-03-14T02:26:30;19.90;52.70
62589;DHT22;58504;48.770;9.148;2023-03-14T02:28:59;19.70;52.50
62589;DHT22;58504;48.770;9.148;2023-03-14T02:31:26;19.80;52.70
62589;DHT22;58504;48.770;9.148;2023-03-14T02:33:53;19.80;52.60
62589;DHT22;58504;48.770;9.148;2023-03-14T02:36:21;19.80;52.70
62589;DHT22;58504;48.770;9.148;2023-03-14T02:38:53;19.70;52.60
62589;DHT22;58504;48.770;9.148;2023-03-14T02:41:22;19.70;52.60
62589;DHT22;58504;48.770;9.148;2023-03-14T02:43:48;19.70;52.60
62589;DHT22;58504;48.770;9.148;2023-03-14T02:46:19;19.70;52.60
62589;DHT22;58504;48.770;9.148;2023-03-14T02:48:49;19.70;52.60
62589;DHT22;58504;48.770;9.148;2023-03-14T02:51:17;19.70;52.50
62589;DHT22;58504;48.770;9.148;2023-03-14T02:53:44;19.70;52.60
62589;DHT22;58504;48.770;9.148;2023-03-14T02:56:10;19.70;52.60
62589;DHT22;58504;48.770;9.148;2023-03-14T02:58:38;19.70;52.40
62589;DHT22;58504;48.770;9.148;2023-03-14T03:01:05;19.70;52.50
62589;DHT22;58504;48.770;9.148;2023-03-14T03:03:33;19.70;52.50
62589;DHT22;58504;48.770;9.148;2023-03-14T03:06:00;19.70;52.50
62589;DHT22;58504;48.770;9.148;2023-03-14T03:08:27;19.70;52.50
62589;DHT22;58504;48.770;9.148;2023-03-14T03:10:55;19.70;52.50
62589;DHT22;58504;48.770;9.148;2023-03-14T03:13:22;19.60;52.40
62589;DHT22;58504;48.770;9.148;2023-03-14T03:15:49;19.60;52.40
62589;DHT22;58504;48.770;9.148;2023-03-14T03:18:16;19.60;52.30
62589;DHT22;58504;48.770;9.148;2023-03-14T03:20:44;19.60;52.40
62589;DHT22;58504;48.770;9.148;2023-03-14T03:23:11;19.60;52.90
62589;DHT22;58504;48.770;9.148;2023-03-14T03:25:38;19.60;52.40
62589;DHT22;58504;48.770;9.148;2023-03-14T03:28:04;19.60;52.40
62589;DHT22;58504;48.770;9.148;2023-03-14T03:30:33;19.60;52.50
62589;DHT22;58504;48.770;9.148;2023-03-14T03:33:00;19.60;52.30
62589;DHT22;58504;48.770;9.148;2023-03-14T03:35:27;19.60;52.40
62589;DHT22;58504;48.770;9.148;2023-03-14T03:37:55;19.60;52.40
62589;DHT22;58504;48.770;9.148;2023-03-14T03:40:22;19.60;52.50
62589;DHT22;58504;48.770;9.148;2023-03-14T03:42:49;19.60;52.40
62589;DHT22;58504;48.770;9.148;2023-03-14T03:45:15;19.60;52.40
62589;DHT22;58504;48.770;9.148;2023-03-14T03:47:42;19.50;52.20
62589;DHT22;58504;48.770;9.148;2023-03-14T03:50:10;19.50;52.20
62589;DHT22;58504;48.770;9.148;2023-03-14T03:52:36;19.50;52.30
62589;DHT22;58504;48.770;9.148;2023-03-14T03:55:05;19.50;52.30
62589;DHT22;58504;48.770;9.148;2023-03-14T03:57:32;19.50;52.30
62589;DHT22;58504;48.770;9.148;2023-03-14T03:59:59;19.50;52.20
62589;DHT22;58504;48.770;9.148;2023-03-14T04:02:26;19.50;52.30
62589;DHT22;58504;48.770;9.148;2023-03-14T04:04:52;19.50;52.30
62589;DHT22;58504;48.770;9.148;2023-03-14T04:07:19;19.50;52.30
62589;DHT22;58504;48.770;9.148;2023-03-14T04:09:46;19.50;52.30
62589;DHT22;58504;48.770;9.148;2023-03-14T04:12:14;19.50;52.30
62589;DHT22;58504;48.770;9.148;2023-03-14T04:14:40;19.50;52.30
62589;DHT22;58504;48.770;9.148;2023-03-14T04:17:07;19.50;52.20
62589;DHT22;58504;48.770;9.148;2023-03-14T04:19:34;19.50;52.30
62589;DHT22;58504;48.770;9.148;2023-03-14T04:22:01;19.50;52.30
62589;DHT22;58504;48.770;9.148;2023-03-14T04:24:28;19.40;52.30
62589;DHT22;58504;48.770;9.148;2023-03-14T04:26:54;19.50;52.30
62589;DHT22;58504;48.770;9.148;2023-03-14T04:29:23;19.50;52.30
62589;DHT22;58504;48.770;9.148;2023-03-14T04:31:49;19.50;52.30
62589;DHT22;58504;48.770;9.148;2023-03-14T04:34:16;19.60;52.20
62589;DHT22;58504;48.770;9.148;2023-03-14T04:36:43;19.90;51.80
62589;DHT22;58504;48.770;9.148;2023-03-14T04:39:09;20.20;51.10
62589;DHT22;58504;48.770;9.148;2023-03-14T04:41:36;20.60;50.30
62589;DHT22;58504;48.770;9.148;2023-03-14T04:44:03;21.10;49.70
62589;DHT22;58504;48.770;9.148;2023-03-14T04:46:31;21.50;49.50
62589;DHT22;58504;48.770;9.148;2023-03-14T04:48:58;21.80;48.20
62589;DHT22;58504;48.770;9.148;2023-03-14T04:51:25;22.10;47.80
62589;DHT22;58504;48.770;9.148;2023-03-14T04:53:53;22.30;47.00
62589;DHT22;58504;48.770;9.148;2023-03-14T04:56:20;22.40;46.50
62589;DHT22;58504;48.770;9.148;2023-03-14T04:58:47;22.70;46.30
62589;DHT22;58504;48.770;9.148;2023-03-14T05:01:13;22.60;45.90
62589;DHT22;58504;48.770;9.148;2023-03-14T05:03:41;22.70;45.80
62589;DHT22;58504;48.770;9.148;2023-03-14T05:06:08;22.80;45.60
62589;DHT22;58504;48.770;9.148;2023-03-14T05:08:35;22.90;45.50
62589;DHT22;58504;48.770;9.148;2023-03-14T05:11:02;23.00;45.30
62589;DHT22;58504;48.770;9.148;2023-03-14T05:13:29;23.00;45.20
62589;DHT22;58504;48.770;9.148;2023-03-14T05:16:04;23.10;45.10
62589;DHT22;58504;48.770;9.148;2023-03-14T05:18:31;23.10;45.00
62589;DHT22;58504;48.770;9.148;2023-03-14T05:20:59;23.20;44.90
62589;DHT22;58504;48.770;9.148;2023-03-14T05:23:26;23.30;44.80
62589;DHT22;58504;48.770;9.148;2023-03-14T05:25:54;23.30;44.70
62589;DHT22;58504;48.770;9.148;2023-03-14T05:28:21;23.30;44.60
62589;DHT22;58504;48.770;9.148;2023-03-14T05:30:48;23.40;44.60
62589;DHT22;58504;48.770;9.148;2023-03-14T05:33:14;23.40;44.50
62589;DHT22;58504;48.770;9.148;2023-03-14T05:35:42;23.50;44.50
62589;DHT22;58504;48.770;9.148;2023-03-14T05:38:10;23.50;44.30
62589;DHT22;58504;48.770;9.148;2023-03-14T05:40:37;23.50;44.30
62589;DHT22;58504;48.770;9.148;2023-03-14T05:43:04;23.60;44.30
62589;DHT22;58504;48.770;9.148;2023-03-14T05:45:33;23.60;44.20
62589;DHT22;58504;48.770;9.148;2023-03-14T05:48:00;23.60;44.20
62589;DHT22;58504;48.770;9.148;2023-03-14T05:50:27;23.70;44.20
62589;DHT22;58504;48.770;9.148;2023-03-14T05:52:53;23.70;44.00
62589;DHT22;58504;48.770;9.148;2023-03-14T05:55:21;23.70;44.00
62589;DHT22;58504;48.770;9.148;2023-03-14T05:57:48;23.70;43.90
62589;DHT22;58504;48.770;9.148;2023-03-14T06:00:16;23.70;43.90
62589;DHT22;58504;48.770;9.148;2023-03-14T06:02:45;23.80;43.90
62589;DHT22;58504;48.770;9.148;2023-03-14T06:05:12;23.80;43.90
62589;DHT22;58504;48.770;9.148;2023-03-14T06:07:39;23.80;43.80
62589;DHT22;58504;48.770;9.148;2023-03-14T06:10:06;23.80;43.60
62589;DHT22;58504;48.770;9.148;2023-03-14T06:12:34;23.90;43.70
62589;DHT22;58504;48.770;9.148;2023-03-14T06:15:01;23.90;43.50
62589;DHT22;58504;48.770;9.148;2023-03-14T06:17:28;24.00;43.60
62589;DHT22;58504;48.770;9.148;2023-03-14T06:19:55;24.00;43.50
62589;DHT22;58504;48.770;9.148;2023-03-14T06:22:21;24.00;43.50
62589;DHT22;58504;48.770;9.148;2023-03-14T06:24:48;24.00;43.40
62589;DHT22;58504;48.770;9.148;2023-03-14T06:27:15;24.00;43.30
62589;DHT22;58504;48.770;9.148;2023-03-14T06:29:43;24.10;43.30
62589;DHT22;58504;48.770;9.148;2023-03-14T06:32:10;24.10;43.30
62589;DHT22;58504;48.770;9.148;2023-03-14T06:34:36;24.00;43.30
62589;DHT22;58504;48.770;9.148;2023-03-14T06:37:04;24.00;43.40
62589;DHT22;58504;48.770;9.148;2023-03-14T06:39:31;23.80;43.40
62589;DHT22;58504;48.770;9.148;2023-03-14T06:41:57;23.70;43.10
62589;DHT22;58504;48.770;9.148;2023-03-14T06:44:24;23.60;43.30
62589;DHT22;58504;48.770;9.148;2023-03-14T06:46:52;23.40;43.60
62589;DHT22;58504;48.770;9.148;2023-03-14T06:49:19;23.30;42.60
62589;DHT22;58504;48.770;9.148;2023-03-14T06:51:46;23.00;43.00
62589;DHT22;58504;48.770;9.148;2023-03-14T06:54:12;22.90;44.20
62589;DHT22;58504;48.770;9.148;2023-03-14T06:56:39;22.80;44.80
62589;DHT22;58504;48.770;9.148;2023-03-14T06:59:06;22.70;45.10
62589;DHT22;58504;48.770;9.148;2023-03-14T07:01:33;22.60;45.40
62589;DHT22;58504;48.770;9.148;2023-03-14T07:04:01;22.50;45.60
62589;DHT22;58504;48.770;9.148;2023-03-14T07:06:28;22.50;46.00
62589;DHT22;58504;48.770;9.148;2023-03-14T07:08:55;22.40;46.20
62589;DHT22;58504;48.770;9.148;2023-03-14T07:11:23;22.30;46.40
62589;DHT22;58504;48.770;9.148;2023-03-14T07:13:50;22.30;46.50
62589;DHT22;58504;48.770;9.148;2023-03-14T07:16:16;22.20;47.00
62589;DHT22;58504;48.770;9.148;2023-03-14T07:18:43;22.20;47.20
62589;DHT22;58504;48.770;9.148;2023-03-14T07:21:12;22.20;47.60
62589;DHT22;58504;48.770;9.148;2023-03-14T07:23:38;22.30;47.90
62589;DHT22;58504;48.770;9.148;2023-03-14T07:26:06;22.30;48.10
62589;DHT22;58504;48.770;9.148;2023-03-14T07:28:33;22.30;48.50
62589;DHT22;58504;48.770;9.148;2023-03-14T07:30:59;22.20;48.80
62589;DHT22;58504;48.770;9.148;2023-03-14T07:33:26;22.10;48.60
62589;DHT22;58504;48.770;9.148;2023-03-14T07:35:53;22.10;48.60
62589;DHT22;58504;48.770;9.148;2023-03-14T07:38:21;22.00;48.90
62589;DHT22;58504;48.770;9.148;2023-03-14T07:40:48;21.90;49.30
62589;DHT22;58504;48.770;9.148;2023-03-14T07:43:14;21.80;49.30
62589;DHT22;58504;48.770;9.148;2023-03-14T07:45:44;21.80;48.90
62589;DHT22;58504;48.770;9.148;2023-03-14T07:48:11;21.90;49.20
62589;DHT22;58504;48.770;9.148;2023-03-14T07:50:38;21.90;48.70
62589;DHT22;58504;48.770;9.148;2023-03-14T07:53:05;22.00;49.00
62589;DHT22;58504;48.770;9.148;2023-03-14T07:55:33;22.00;49.00
62589;DHT22;58504;48.770;9.148;2023-03-14T07:57:59;22.00;49.50
62589;DHT22;58504;48.770;9.148;2023-03-14T08:00:27;22.00;48.60
62589;DHT22;58504;48.770;9.148;2023-03-14T08:02:54;22.00;48.40
62589;DHT22;58504;48.770;9.148;2023-03-14T08:05:21;21.90;48.80
62589;DHT22;58504;48.770;9.148;2023-03-14T08:07:47;21.90;49.20
62589;DHT22;58504;48.770;9.148;2023-03-14T08:10:14;21.80;49.10
62589;DHT22;58504;48.770;9.148;2023-03-14T08:12:48;21.90;48.90
62589;DHT22;58504;48.770;9.148;2023-03-14T08:15:15;21.90;49.00
62589;DHT22;58504;48.770;9.148;2023-03-14T08:17:42;22.00;48.90
62589;DHT22;58504;48.770;9.148;2023-03-14T08:20:10;21.90;48.40
62589;DHT22;58504;48.770;9.148;2023-03-14T08:22:38;22.00;48.70
62589;DHT22;58504;48.770;9.148;2023-03-14T08:25:05;22.00;48.70
62589;DHT22;58504;48.770;9.148;2023-03-14T08:27:32;22.10;48.60
62589;DHT22;58504;48.770;9.148;2023-03-14T08:30:00;22.30;48.50
62589;DHT22;58504;48.770;9.148;2023-03-14T08:32:27;22.30;48.20
62589;DHT22;58504;48.770;9.148;2023-03-14T08:34:54;22.40;47.80
62589;DHT22;58504;48.770;9.148;2023-03-14T08:37:21;22.50;47.50
62589;DHT22;58504;48.770;9.148;2023-03-14T08:39:47;22.60;47.50
62589;DHT22;58504;48.770;9.148;2023-03-14T08:42:14;22.60;47.20
62589;DHT22;58504;48.770;9.148;2023-03-14T08:44:41;22.60;47.10
62589;DHT22;58504;48.770;9.148;2023-03-14T08:47:09;22.60;46.90
62589;DHT22;58504;48.770;9.148;2023-03-14T08:49:36;22.70;46.80
62589;DHT22;58504;48.770;9.148;2023-03-14T08:52:03;22.70;46.50
62589;DHT22;58504;48.770;9.148;2023-03-14T08:54:29;22.50;46.70
62589;DHT22;58504;48.770;9.148;2023-03-14T08:56:56;22.40;47.20
62589;DHT22;58504;48.770;9.148;2023-03-14T08:59:23;22.30;47.30
62589;DHT22;58504;48.770;9.148;2023-03-14T09:01:50;22.30;47.70
62589;DHT22;58504;48.770;9.148;2023-03-14T09:04:18;22.40;47.40
62589;DHT22;58504;48.770;9.148;2023-03-14T09:06:45;22.30;47.30
62589;DHT22;58504;48.770;9.148;2023-03-14T09:09:12;22.30;47.60
62589;DHT22;58504;48.770;9.148;2023-03-14T09:11:39;22.40;47.40
62589;DHT22;58504;48.770;9.148;2023-03-14T09:14:06;22.40;47.30
62589;DHT22;58504;48.770;9.148;2023-03-14T09:16:33;22.40;47.00
62589;DHT22;58504;48.770;9.148;2023-03-14T09:19:00;22.60;47.00
62589;DHT22;58504;48.770;9.148;2023-03-14T09:21:28;22.70;46.40
62589;DHT22;58504;48.770;9.148;2023-03-14T09:23:55;22.90;46.40
62589;DHT22;58504;48.770;9.148;2023-03-14T09:26:22;22.90;46.10
62589;DHT22;58504;48.770;9.148;2023-03-14T09:28:48;23.00;46.10
62589;DHT22;58504;48.770;9.148;2023-03-14T09:31:15;23.10;45.80
62589;DHT22;58504;48.770;9.148;2023-03-14T09:33:42;23.20;45.50
62589;DHT22;58504;48.770;9.148;2023-03-14T09:36:10;23.20;45.30
62589;DHT22;58504;48.770;9.148;2023-03-14T09:38:38;23.00;45.50
62589;DHT22;58504;48.770;9.148;2023-03-14T09:41:13;22.80;46.00
62589;DHT22;58504;48.770;9.148;2023-03-14T09:43:42;22.60;46.30
62589;DHT22;58504;48.770;9.148;2023-03-14T09:46:10;22.50;46.70
62589;DHT22;58504;48.770;9.148;2023-03-14T09:48:38;22.30;47.10
62589;DHT22;58504;48.770;9.148;2023-03-14T09:51:12;22.10;47.40
62589;DHT22;58504;48.770;9.148;2023-03-14T09:53:43;22.00;47.70
62589;DHT22;58504;48.770;9.148;2023-03-14T09:56:13;21.90;47.90
62589;DHT22;58504;48.770;9.148;2023-03-14T09:58:41;21.90;48.10
62589;DHT22;58504;48.770;9.148;2023-03-14T10:01:13;21.90;48.00
62589;DHT22;58504;48.770;9.148;2023-03-14T10:03:42;22.00;48.00
62589;DHT22;58504;48.770;9.148;2023-03-14T10:06:12;22.00;48.10
62589;DHT22;58504;48.770;9.148;2023-03-14T10:08:41;22.00;48.00
62589;DHT22;58504;48.770;9.148;2023-03-14T10:11:14;22.00;48.00
62589;DHT22;58504;48.770;9.148;2023-03-14T10:13:49;22.00;47.50
62589;DHT22;58504;48.770;9.148;2023-03-14T10:16:16;22.10;47.50
62589;DHT22;58504;48.770;9.148;2023-03-14T10:18:45;22.30;47.30
62589;DHT22;58504;48.770;9.148;2023-03-14T10:21:20;22.40;47.00
62589;DHT22;58504;48.770;9.148;2023-03-14T10:23:49;22.60;46.70
62589;DHT22;58504;48.770;9.148;2023-03-14T10:26:17;22.70;46.20
62589;DHT22;58504;48.770;9.148;2023-03-14T10:28:45;22.90;45.60
62589;DHT22;58504;48.770;9.148;2023-03-14T10:31:14;23.00;45.30
62589;DHT22;58504;48.770;9.148;2023-03-14T10:33:41;22.90;45.50
62589;DHT22;58504;48.770;9.148;2023-03-14T10:36:18;22.70;46.00
62589;DHT22;58504;48.770;9.148;2023-03-14T10:38:46;22.60;46.30
62589;DHT22;58504;48.770;9.148;2023-03-14T10:41:17;22.50;46.40
62589;DHT22;58504;48.770;9.148;2023-03-14T10:43:45;22.50;46.50
62589;DHT22;58504;48.770;9.148;2023-03-14T10:46:17;22.50;46.50
62589;DHT22;58504;48.770;9.148;2023-03-14T10:48:44;22.60;46.30
62589;DHT22;58504;48.770;9.148;2023-03-14T10:51:18;22.60;46.30
62589;DHT22;58504;48.770;9.148;2023-03-14T10:53:47;22.50;46.40
62589;DHT22;58504;48.770;9.148;2023-03-14T10:56:18;22.50;46.40
62589;DHT22;58504;48.770;9.148;2023-03-14T10:58:47;22.40;46.40
62589;DHT22;58504;48.770;9.148;2023-03-14T11:01:28;22.30;46.40
62589;DHT22;58504;48.770;9.148;2023-03-14T11:04:05;22.20;46.90
62589;DHT22;58504;48.770;9.148;2023-03-14T11:06:40;22.10;47.20
62589;DHT22;58504;48.770;9.148;2023-03-14T11:09:14;22.00;47.30
62589;DHT22;58504;48.770;9.148;2023-03-14T11:11:46;22.00;47.40
62589;DHT22;58504;48.770;9.148;2023-03-14T11:14:20;21.90;47.40
62589;DHT22;58504;48.770;9.148;2023-03-14T11:16:54;21.80;47.50
62589;DHT22;58504;48.770;9.148;2023-03-14T11:19:47;21.80;47.60
62589;DHT22;58504;48.770;9.148;2023-03-14T11:22:21;21.70;47.60
62589;DHT22;58504;48.770;9.148;2023-03-14T11:25:06;21.60;47.90
62589;DHT22;58504;48.770;9.148;2023-03-14T11:27:43;21.60;48.10
62589;DHT22;58504;48.770;9.148;2023-03-14T11:30:19;21.50;47.90
62589;DHT22;58504;48.770;9.148;2023-03-14T11:32:53;21.40;48.00
62589;DHT22;58504;48.770;9.148;2023-03-14T11:35:28;21.40;48.00
62589;DHT22;58504;48.770;9.148;2023-03-14T11:37:58;21.30;48.00
62589;DHT22;58504;48.770;9.148;2023-03-14T11:40:27;21.30;48.00
62589;DHT22;58504;48.770;9.148;2023-03-14T11:43:04;21.40;48.00
62589;DHT22;58504;48.770;9.148;2023-03-14T11:45:35;21.50;47.60
62589;DHT22;58504;48.770;9.148;2023-03-14T11:48:25;21.50;47.50
62589;DHT22;58504;48.770;9.148;2023-03-14T11:50:57;21.40;47.40
62589;DHT22;58504;48.770;9.148;2023-03-14T11:53:35;21.40;47.50
62589;DHT22;58504;48.770;9.148;2023-03-14T11:56:04;21.30;47.50
62589;DHT22;58504;48.770;9.148;2023-03-14T11:58:35;21.30;47.50
62589;DHT22;58504;48.770;9.148;2023-03-14T12:01:07;21.30;47.60
62589;DHT22;58504;48.770;9.148;2023-03-14T12:03:39;21.30;47.70
62589;DHT22;58504;48.770;9.148;2023-03-14T12:06:14;21.30;47.70
62589;DHT22;58504;48.770;9.148;2023-03-14T12:08:47;21.30;47.60
62589;DHT22;58504;48.770;9.148;2023-03-14T12:11:22;21.30;47.50
62589;DHT22;58504;48.770;9.148;2023-03-14T12:13:53;21.30;47.50
62589;DHT22;58504;48.770;9.148;2023-03-14T12:16:30;21.40;47.70
62589;DHT22;58504;48.770;9.148;2023-03-14T12:18:57;21.70;47.20
62589;DHT22;58504;48.770;9.148;2023-03-14T12:21:44;22.10;46.30
62589;DHT22;58504;48.770;9.148;2023-03-14T12:24:18;22.60;45.80
62589;DHT22;58504;48.770;9.148;2023-03-14T12:26:50;23.20;45.20
62589;DHT22;58504;48.770;9.148;2023-03-14T12:29:20;23.60;44.50
62589;DHT22;58504;48.770;9.148;2023-03-14T12:31:48;23.90;43.60
62589;DHT22;58504;48.770;9.148;2023-03-14T12:34:31;24.20;43.30
62589;DHT22;58504;48.770;9.148;2023-03-14T12:39:39;24.30;42.70
62589;DHT22;58504;48.770;9.148;2023-03-14T12:42:12;24.20;42.50
62589;DHT22;58504;48.770;9.148;2023-03-14T12:44:44;24.20;42.70
62589;DHT22;58504;48.770;9.148;2023-03-14T12:47:50;24.10;42.60
62589;DHT22;58504;48.770;9.148;2023-03-14T12:50:21;24.00;42.90
62589;DHT22;58504;48.770;9.148;2023-03-14T12:53:31;23.90;43.40
62589;DHT22;58504;48.770;9.148;2023-03-14T12:56:09;23.80;43.40
62589;DHT22;58504;48.770;9.148;2023-03-14T12:58:39;23.70;43.70
62589;DHT22;58504;48.770;9.148;2023-03-14T13:01:16;23.60;43.70
62589;DHT22;58504;48.770;9.148;2023-03-14T13:03:46;23.50;43.70
62589;DHT22;58504;48.770;9.148;2023-03-14T13:06:46;23.40;43.80
62589;DHT22;58504;48.770;9.148;2023-03-14T13:09:45;23.40;44.40
62589;DHT22;58504;48.770;9.148;2023-03-14T13:12:17;23.30;44.50
62589;DHT22;58504;48.770;9.148;2023-03-14T13:14:45;23.20;44.30
62589;DHT22;58504;48.770;9.148;2023-03-14T13:17:18;23.10;44.50
62589;DHT22;58504;48.770;9.148;2023-03-14T13:19:48;23.10;44.30
62589;DHT22;58504;48.770;9.148;2023-03-14T13:22:21;23.10;43.70
62589;DHT22;58504;48.770;9.148;2023-03-14T13:24:48;23.10;44.00
62589;DHT22;58504;48.770;9.148;2023-03-14T13:27:17;23.10;43.60
62589;DHT22;58504;48.770;9.148;2023-03-14T13:29:44;23.10;44.00
62589;DHT22;58504;48.770;9.148;2023-03-14T13:32:19;23.00;44.40
62589;DHT22;58504;48.770;9.148;2023-03-14T13:34:46;23.00;44.20
62589;DHT22;58504;48.770;9.148;2023-03-14T13:37:16;22.90;44.60
62589;DHT22;58504;48.770;9.148;2023-03-14T13:39:43;22.90;44.60
62589;DHT22;58504;48.770;9.148;2023-03-14T13:42:16;22.80;44.30
62589;DHT22;58504;48.770;9.148;2023-03-14T13:44:43;22.80;43.80
62589;DHT22;58504;48.770;9.148;2023-03-14T13:47:14;22.80;44.10
62589;DHT22;58504;48.770;9.148;2023-03-14T13:49:43;22.90;43.80
62589;DHT22;58504;48.770;9.148;2023-03-14T13:52:27;22.80;43.80
62589;DHT22;58504;48.770;9.148;2023-03-14T13:54:54;22.80;44.10
62589;DHT22;58504;48.770;9.148;2023-03-14T13:57:21;22.80;44.50
62589;DHT22;58504;48.770;9.148;2023-03-14T13:59:59;22.80;43.60
62589;DHT22;58504;48.770;9.148;2023-03-14T14:02:27;22.70;44.00
62589;DHT22;58504;48.770;9.148;2023-03-14T14:04:56;22.70;44.80
62589;DHT22;58504;48.770;9.148;2023-03-14T14:07:23;22.60;44.60
62589;DHT22;58504;48.770;9.148;2023-03-14T14:09:52;22.50;44.70
62589;DHT22;58504;48.770;9.148;2023-03-14T14:12:23;22.50;44.90
62589;DHT22;58504;48.770;9.148;2023-03-14T14:14:56;22.40;44.80
62589;DHT22;58504;48.770;9.148;2023-03-14T14:17:27;22.30;44.80
62589;DHT22;58504;48.770;9.148;2023-03-14T14:19:58;22.20;45.50
62589;DHT22;58504;48.770;9.148;2023-03-14T14:22:26;22.10;44.70
62589;DHT22;58504;48.770;9.148;2023-03-14T14:24:53;22.10;45.00
62589;DHT22;58504;48.770;9.148;2023-03-14T14:27:27;22.10;45.40
62589;DHT22;58504;48.770;9.148;2023-03-14T14:29:59;22.00;44.80
62589;DHT22;58504;48.770;9.148;2023-03-14T14:32:34;21.90;44.80
62589;DHT22;58504;48.770;9.148;2023-03-14T14:35:03;21.90;45.40
62589;DHT22;58504;48.770;9.148;2023-03-14T14:37:32;21.80;45.70
62589;DHT22;58504;48.770;9.148;2023-03-14T14:40:07;21.70;46.20
62589;DHT22;58504;48.770;9.148;2023-03-14T14:42:39;21.70;45.70
62589;DHT22;58504;48.770;9.148;2023-03-14T14:45:12;21.60;45.70
62589;DHT22;58504;48.770;9.148;2023-03-14T14:47:49;21.60;46.10
62589;DHT22;58504;48.770;9.148;2023-03-14T14:50:28;21.50;46.00
62589;DHT22;58504;48.770;9.148;2023-03-14T14:52:57;21.40;46.60
62589;DHT22;58504;48.770;9.148;2023-03-14T14:55:30;21.40;46.70
62589;DHT22;58504;48.770;9.148;2023-03-14T14:57:57;21.40;46.30
62589;DHT22;58504;48.770;9.148;2023-03-14T15:00:26;21.40;46.40
62589;DHT22;58504;48.770;9.148;2023-03-14T15:02:54;21.30;46.60
62589;DHT22;58504;48.770;9.148;2023-03-14T15:05:24;21.30;46.10
62589;DHT22;58504;48.770;9.148;2023-03-14T15:07:51;21.30;46.50
62589;DHT22;58504;48.770;9.148;2023-03-14T15:10:20;21.20;46.40
62589;DHT22;58504;48.770;9.148;2023-03-14T15:12:48;21.20;46.10
62589;DHT22;58504;48.770;9.148;2023-03-14T15:15:16;21.20;46.00
62589;DHT22;58504;48.770;9.148;2023-03-14T15:17:43;21.20;46.10
62589;DHT22;58504;48.770;9.148;2023-03-14T15:20:12;21.20;46.30
62589;DHT22;58504;48.770;9.148;2023-03-14T15:22:41;21.20;46.40
62589;DHT22;58504;48.770;9.148;2023-03-14T15:25:09;21.20;46.30
62589;DHT22;58504;48.770;9.148;2023-03-14T15:27:36;21.20;45.70
62589;DHT22;58504;48.770;9.148;2023-03-14T15:30:10;21.20;46.40
62589;DHT22;58504;48.770;9.148;2023-03-14T15:32:37;21.10;46.90
62589;DHT22;58504;48.770;9.148;2023-03-14T15:35:04;21.30;47.00
62589;DHT22;58504;48.770;9.148;2023-03-14T15:37:31;21.70;45.70
62589;DHT22;58504;48.770;9.148;2023-03-14T15:39:59;22.10;45.20
62589;DHT22;58504;48.770;9.148;2023-03-14T15:42:27;22.50;44.50
62589;DHT22;58504;48.770;9.148;2023-03-14T15:44:54;22.90;43.80